Terminal Aerodrome Forecast
Issued by NWS

Home | Current Version | Previous Version | Text Only | Print | Product List | Glossary On
Versions: 1 2 3 4 5 6 7 8 9 10 11 12 13 14 15 16
000
FTUS41 KILN 232336
TAFLUK
TAF
KLUK 232336Z 2400/2424 08009KT P6SM VCSH SCT025 OVC050
      TEMPO 2400/2402 -SHRA BKN025
     FM240400 07008KT P6SM OVC050
     FM241200 07007KT 3SM -SHRA BR BKN018 OVC040
     FM241700 07010KT 5SM BR VCSH BKN009 OVC015
     FM242100 05007KT 5SM BR OVC007=

USA.gov is the U.S. government's official web portal to all federal, state and local government web resources and services.